createdAt,value
2023-05-02T00:00:15.469Z,101500.0
2023-05-02T00:02:15.224Z,101510.0
2023-05-02T00:06:14.821Z,101510.0
2023-05-02T00:08:15.342Z,101510.0
2023-05-02T00:10:14.110Z,101520.0
2023-05-02T00:12:13.854Z,101510.0
2023-05-02T00:14:13.555Z,101510.0
2023-05-02T00:16:13.221Z,101510.0
2023-05-02T00:18:12.967Z,101520.0
2023-05-02T00:20:13.135Z,101520.0
2023-05-02T00:22:12.715Z,101520.0
2023-05-02T00:24:12.139Z,101520.0
2023-05-02T00:26:12.161Z,101530.0
2023-05-02T00:28:12.768Z,101530.0
2023-05-02T00:30:12.424Z,101540.0
2023-05-02T00:32:11.139Z,101540.0
2023-05-02T00:36:13.968Z,101530.0
2023-05-02T00:38:10.406Z,101540.0
2023-05-02T00:40:10.841Z,101540.0
2023-05-02T00:42:10.127Z,101540.0
2023-05-02T00:44:09.681Z,101550.0
2023-05-02T00:46:11.217Z,101540.0
2023-05-02T00:48:10.298Z,101540.0
2023-05-02T00:50:09.416Z,101540.0
2023-05-02T00:52:09.102Z,101540.0
2023-05-02T00:54:08.401Z,101530.0
2023-05-02T00:56:08.674Z,101530.0
2023-05-02T00:58:11.134Z,101530.0
2023-05-02T01:00:08.352Z,101530.0
2023-05-02T01:02:21.702Z,101540.0
2023-05-02T01:04:22.504Z,101540.0
2023-05-02T01:06:15.682Z,101540.0
2023-05-02T01:08:14.072Z,101540.0
2023-05-02T01:10:17.106Z,101540.0
2023-05-02T01:12:15.436Z,101550.0
2023-05-02T01:14:10.326Z,101550.0
2023-05-02T01:16:09.327Z,101550.0
2023-05-02T01:18:08.759Z,101540.0
2023-05-02T01:20:11.048Z,101540.0
2023-05-02T01:22:08.376Z,101540.0
2023-05-02T01:24:11.610Z,101530.0
2023-05-02T01:26:15.283Z,101530.0
2023-05-02T01:28:19.129Z,101530.0
2023-05-02T01:30:06.058Z,101530.0
2023-05-02T01:32:05.484Z,101530.0
2023-05-02T01:34:07.000Z,101540.0
2023-05-02T01:36:04.742Z,101540.0
2023-05-02T01:38:05.387Z,101550.0
2023-05-02T01:40:05.565Z,101540.0
2023-05-02T01:42:03.177Z,101540.0
2023-05-02T01:44:03.798Z,101540.0
2023-05-02T01:46:04.201Z,101540.0
2023-05-02T01:48:02.252Z,101540.0
2023-05-02T01:50:04.612Z,101550.0
2023-05-02T01:52:04.318Z,101550.0
2023-05-02T01:54:04.598Z,101550.0
2023-05-02T01:56:01.038Z,101550.0
2023-05-02T01:58:01.224Z,101550.0
2023-05-02T02:00:02.977Z,101550.0
2023-05-02T02:02:01.623Z,101550.0
2023-05-02T02:04:00.492Z,101550.0
2023-05-02T02:06:00.404Z,101550.0
2023-05-02T02:07:58.699Z,101550.0
2023-05-02T02:09:59.359Z,101550.0
2023-05-02T02:12:05.111Z,101550.0
2023-05-02T02:14:01.369Z,101550.0
2023-05-02T02:16:00.172Z,101550.0
2023-05-02T02:18:00.012Z,101550.0
2023-05-02T02:20:02.460Z,101550.0
2023-05-02T02:21:57.850Z,101550.0
2023-05-02T02:24:01.734Z,101550.0
2023-05-02T02:25:57.685Z,101550.0
2023-05-02T02:27:56.280Z,101550.0
2023-05-02T02:29:55.832Z,101560.0
2023-05-02T02:31:55.464Z,101560.0
2023-05-02T02:33:55.121Z,101560.0
2023-05-02T02:36:03.148Z,101560.0
2023-05-02T02:38:05.540Z,101560.0
2023-05-02T02:40:02.598Z,101560.0
2023-05-02T02:42:03.276Z,101560.0
2023-05-02T02:44:00.414Z,101560.0
2023-05-02T02:46:02.231Z,101570.0
2023-05-02T02:48:02.545Z,101570.0
2023-05-02T02:50:08.689Z,101570.0
2023-05-02T02:52:01.140Z,101570.0
2023-05-02T02:54:00.080Z,101580.0
2023-05-02T02:55:56.994Z,101580.0
2023-05-02T02:57:59.516Z,101580.0
2023-05-02T03:00:01.866Z,101590.0
2023-05-02T03:01:58.765Z,101590.0
2023-05-02T03:03:52.657Z,101580.0
2023-05-02T03:05:51.268Z,101580.0
2023-05-02T03:07:50.996Z,101570.0
2023-05-02T03:09:50.291Z,101580.0
2023-05-02T03:11:49.939Z,101580.0
2023-05-02T03:13:51.718Z,101590.0
2023-05-02T03:16:09.172Z,101590.0
2023-05-02T03:17:49.118Z,101590.0
2023-05-02T03:19:48.773Z,101600.0
2023-05-02T03:21:48.527Z,101600.0
2023-05-02T03:23:48.349Z,101600.0
2023-05-02T03:25:48.003Z,101610.0
2023-05-02T03:27:47.662Z,101600.0
2023-05-02T03:29:47.978Z,101610.0
2023-05-02T03:31:47.276Z,101610.0
2023-05-02T03:33:47.036Z,101610.0
2023-05-02T03:35:46.846Z,101610.0
2023-05-02T03:37:46.506Z,101610.0
2023-05-02T03:39:46.160Z,101610.0
2023-05-02T03:41:45.871Z,101610.0
2023-05-02T03:43:45.563Z,101620.0
2023-05-02T03:47:45.165Z,101610.0
2023-05-02T03:49:44.683Z,101620.0
2023-05-02T03:51:44.539Z,101610.0
2023-05-02T03:53:44.089Z,101610.0
2023-05-02T03:55:44.673Z,101610.0
2023-05-02T03:57:43.527Z,101610.0
2023-05-02T03:59:44.778Z,101610.0
2023-05-02T04:03:43.224Z,101620.0
2023-05-02T04:05:42.408Z,101630.0
2023-05-02T04:07:42.142Z,101630.0
2023-05-02T04:09:41.692Z,101630.0
2023-05-02T04:11:41.399Z,101640.0
2023-05-02T04:13:41.245Z,101640.0
2023-05-02T04:15:40.964Z,101640.0
2023-05-02T04:17:40.587Z,101640.0
2023-05-02T04:19:40.212Z,101640.0
2023-05-02T04:21:40.023Z,101640.0
2023-05-02T04:23:40.150Z,101640.0
2023-05-02T04:25:39.360Z,101650.0
2023-05-02T04:27:39.294Z,101650.0
2023-05-02T04:29:38.721Z,101650.0
2023-05-02T04:31:38.797Z,101660.0
2023-05-02T04:33:38.162Z,101660.0
2023-05-02T04:35:38.750Z,101660.0
2023-05-02T04:39:37.442Z,101670.0
2023-05-02T04:41:37.235Z,101670.0
2023-05-02T04:43:36.791Z,101680.0
2023-05-02T04:45:36.591Z,101690.0
2023-05-02T04:47:36.696Z,101690.0
2023-05-02T04:49:35.957Z,101690.0
2023-05-02T04:51:35.644Z,101690.0
2023-05-02T04:53:35.430Z,101700.0
2023-05-02T04:55:35.243Z,101700.0
2023-05-02T04:57:34.901Z,101700.0
2023-05-02T04:59:34.878Z,101710.0
2023-05-02T05:01:34.487Z,101700.0
2023-05-02T05:03:34.272Z,101710.0
2023-05-02T05:05:33.975Z,101710.0
2023-05-02T05:07:34.204Z,101720.0
2023-05-02T05:09:33.450Z,101720.0
2023-05-02T05:11:32.820Z,101720.0
2023-05-02T05:13:33.240Z,101720.0
2023-05-02T05:15:32.300Z,101720.0
2023-05-02T05:17:32.073Z,101730.0
2023-05-02T05:19:31.698Z,101730.0
2023-05-02T05:21:31.484Z,101730.0
2023-05-02T05:23:31.184Z,101730.0
2023-05-02T05:25:31.455Z,101730.0
2023-05-02T05:27:31.774Z,101730.0
2023-05-02T05:29:30.601Z,101740.0
2023-05-02T05:31:30.274Z,101730.0
2023-05-02T05:33:30.034Z,101740.0
2023-05-02T05:35:31.067Z,101730.0
2023-05-02T05:37:29.268Z,101740.0
2023-05-02T05:39:28.888Z,101740.0
2023-05-02T05:41:29.563Z,101740.0
2023-05-02T05:43:28.573Z,101740.0
2023-05-02T05:45:28.128Z,101740.0
2023-05-02T05:47:27.829Z,101740.0
2023-05-02T05:49:27.555Z,101750.0
2023-05-02T05:51:27.542Z,101760.0
2023-05-02T05:53:26.915Z,101760.0
2023-05-02T05:55:27.026Z,101760.0
2023-05-02T05:57:26.431Z,101770.0
2023-05-02T05:59:26.528Z,101770.0
2023-05-02T06:01:25.963Z,101780.0
2023-05-02T06:03:25.968Z,101790.0
2023-05-02T06:05:25.371Z,101790.0
2023-05-02T06:07:25.074Z,101790.0
2023-05-02T06:09:25.079Z,101790.0
2023-05-02T06:11:25.139Z,101800.0
2023-05-02T06:13:25.073Z,101810.0
2023-05-02T06:15:24.017Z,101810.0
2023-05-02T06:17:23.644Z,101820.0
2023-05-02T06:21:23.135Z,101820.0
2023-05-02T06:23:22.713Z,101820.0
2023-05-02T06:25:22.462Z,101820.0
2023-05-02T06:27:22.233Z,101830.0
2023-05-02T06:29:21.810Z,101840.0
2023-05-02T06:31:21.761Z,101840.0
2023-05-02T06:33:21.312Z,101840.0
2023-05-02T06:35:21.053Z,101840.0
2023-05-02T06:37:20.798Z,101850.0
2023-05-02T06:39:20.405Z,101860.0
2023-05-02T06:41:20.206Z,101860.0
2023-05-02T06:43:20.024Z,101860.0
2023-05-02T06:45:19.681Z,101860.0
2023-05-02T06:47:19.485Z,101870.0
2023-05-02T06:49:18.987Z,101870.0
2023-05-02T06:51:20.202Z,101870.0
2023-05-02T06:53:18.389Z,101870.0
2023-05-02T06:55:18.379Z,101870.0
2023-05-02T06:57:17.946Z,101880.0
2023-05-02T06:59:17.636Z,101880.0
2023-05-02T07:01:17.749Z,101890.0
2023-05-02T07:03:16.946Z,101900.0
2023-05-02T07:05:16.785Z,101900.0
2023-05-02T07:07:17.801Z,101900.0
2023-05-02T07:09:16.634Z,101910.0
2023-05-02T07:11:15.815Z,101910.0
2023-05-02T07:13:15.518Z,101920.0
2023-05-02T07:15:15.600Z,101920.0
2023-05-02T07:17:14.851Z,101930.0
2023-05-02T07:19:14.590Z,101940.0
2023-05-02T07:21:14.445Z,101940.0
2023-05-02T07:23:14.001Z,101950.0
2023-05-02T07:25:13.702Z,101950.0
2023-05-02T07:27:13.549Z,101960.0
2023-05-02T07:29:13.050Z,101960.0
2023-05-02T07:33:14.499Z,101970.0
2023-05-02T07:35:12.654Z,101980.0
2023-05-02T07:39:11.731Z,101980.0
2023-05-02T07:45:10.864Z,101980.0
2023-05-02T07:47:10.764Z,101980.0
2023-05-02T07:49:10.381Z,101980.0
2023-05-02T07:51:10.740Z,101980.0
2023-05-02T07:53:10.129Z,101980.0
2023-05-02T07:55:09.553Z,101980.0
2023-05-02T07:57:09.135Z,101980.0
2023-05-02T07:59:10.431Z,101980.0
2023-05-02T08:01:08.483Z,101980.0
2023-05-02T08:03:08.621Z,101990.0
2023-05-02T08:05:08.254Z,101990.0
2023-05-02T08:09:08.385Z,101990.0
2023-05-02T08:11:07.282Z,102000.0
2023-05-02T08:15:09.566Z,101990.0
2023-05-02T08:17:06.443Z,102000.0
2023-05-02T08:19:06.034Z,102000.0
2023-05-02T08:21:05.950Z,102000.0
2023-05-02T08:23:05.626Z,102000.0
2023-05-02T08:25:05.548Z,102000.0
2023-05-02T08:27:05.754Z,102010.0
2023-05-02T08:29:05.010Z,102010.0
2023-05-02T08:31:04.527Z,102020.0
2023-05-02T08:33:05.115Z,102020.0
2023-05-02T08:35:05.454Z,102020.0
2023-05-02T08:37:06.882Z,102020.0
2023-05-02T08:39:03.672Z,102030.0
2023-05-02T08:41:09.110Z,102030.0
2023-05-02T08:43:03.637Z,102030.0
2023-05-02T08:45:04.150Z,102040.0
2023-05-02T08:49:02.661Z,102050.0
2023-05-02T08:51:02.870Z,102040.0
2023-05-02T08:53:03.976Z,102040.0
2023-05-02T08:55:03.054Z,102040.0
2023-05-02T08:57:03.013Z,102040.0
2023-05-02T08:59:01.002Z,102040.0
2023-05-02T09:01:03.512Z,102040.0
2023-05-02T09:03:10.591Z,102040.0
2023-05-02T09:05:06.425Z,102040.0
2023-05-02T09:09:00.250Z,102040.0
2023-05-02T09:13:18.801Z,102040.0
2023-05-02T09:15:09.273Z,102050.0
2023-05-02T09:16:58.913Z,102050.0
2023-05-02T09:18:58.465Z,102050.0
2023-05-02T09:20:59.726Z,102050.0
2023-05-02T09:22:57.708Z,102050.0
2023-05-02T09:27:00.098Z,102060.0
2023-05-02T09:28:58.973Z,102060.0
2023-05-02T09:31:06.437Z,102060.0
2023-05-02T09:32:56.472Z,102060.0
2023-05-02T09:35:05.065Z,102060.0
2023-05-02T09:36:57.190Z,102070.0
2023-05-02T09:39:08.920Z,102070.0
2023-05-02T09:40:55.713Z,102070.0
2023-05-02T09:42:55.460Z,102070.0
2023-05-02T09:44:55.309Z,102070.0
2023-05-02T09:46:56.420Z,102080.0
2023-05-02T09:48:56.163Z,102080.0
2023-05-02T09:50:55.203Z,102080.0
2023-05-02T09:52:59.959Z,102080.0
2023-05-02T09:54:55.487Z,102080.0
2023-05-02T09:59:11.216Z,102080.0
2023-05-02T10:00:53.220Z,102070.0
2023-05-02T10:02:53.152Z,102070.0
2023-05-02T10:04:54.912Z,102070.0
2023-05-02T10:06:53.213Z,102070.0
2023-05-02T10:08:52.080Z,102060.0
2023-05-02T10:10:54.158Z,102060.0
2023-05-02T10:12:55.787Z,102070.0
2023-05-02T10:14:59.606Z,102070.0
2023-05-02T10:16:57.465Z,102070.0
2023-05-02T10:18:57.658Z,102070.0
2023-05-02T10:20:56.293Z,102070.0
2023-05-02T10:22:51.853Z,102070.0
2023-05-02T10:24:52.143Z,102070.0
2023-05-02T10:26:51.184Z,102070.0
2023-05-02T10:28:50.464Z,102070.0
2023-05-02T10:30:50.917Z,102070.0
2023-05-02T10:32:51.468Z,102070.0
2023-05-02T10:34:50.625Z,102070.0
2023-05-02T10:36:48.823Z,102080.0
2023-05-02T10:38:49.249Z,102080.0
2023-05-02T10:40:54.986Z,102080.0
2023-05-02T10:44:50.087Z,102080.0
2023-05-02T10:46:49.149Z,102080.0
2023-05-02T10:48:59.654Z,102080.0
2023-05-02T10:50:52.503Z,102070.0
2023-05-02T10:52:47.236Z,102080.0
2023-05-02T10:54:47.473Z,102070.0
2023-05-02T10:57:05.201Z,102080.0
2023-05-02T10:58:48.222Z,102070.0
2023-05-02T11:00:46.732Z,102070.0
2023-05-02T11:02:47.870Z,102070.0
2023-05-02T11:05:00.899Z,102080.0
2023-05-02T11:08:45.820Z,102080.0
2023-05-02T11:12:46.560Z,102080.0
2023-05-02T11:14:47.590Z,102070.0
2023-05-02T11:17:04.666Z,102070.0
2023-05-02T11:18:58.345Z,102070.0
2023-05-02T11:20:44.951Z,102070.0
2023-05-02T11:24:46.629Z,102070.0
2023-05-02T11:28:46.770Z,102070.0
2023-05-02T11:30:47.471Z,102070.0
2023-05-02T11:33:02.877Z,102070.0
2023-05-02T11:36:42.866Z,102060.0
2023-05-02T11:38:43.122Z,102060.0
2023-05-02T11:40:51.254Z,102070.0
2023-05-02T11:48:41.818Z,102070.0
2023-05-02T11:50:48.857Z,102070.0
2023-05-02T11:52:43.207Z,102070.0
2023-05-02T11:54:41.070Z,102070.0
2023-05-02T11:56:41.342Z,102080.0
2023-05-02T11:58:40.705Z,102090.0
2023-05-02T12:00:40.831Z,102080.0
2023-05-02T12:02:42.772Z,102080.0
2023-05-02T12:06:57.211Z,102070.0
2023-05-02T12:08:41.629Z,102070.0
2023-05-02T12:10:40.829Z,102080.0
2023-05-02T12:12:40.709Z,102070.0
2023-05-02T12:14:40.234Z,102090.0
2023-05-02T12:16:40.761Z,102090.0
2023-05-02T12:18:39.905Z,102090.0
2023-05-02T12:20:39.194Z,102090.0
2023-05-02T12:22:38.882Z,102090.0
2023-05-02T12:24:40.141Z,102090.0
2023-05-02T12:26:38.257Z,102090.0
2023-05-02T12:28:48.369Z,102090.0
2023-05-02T12:30:39.233Z,102090.0
2023-05-02T12:32:41.707Z,102090.0
2023-05-02T12:34:38.568Z,102100.0
2023-05-02T12:36:43.293Z,102100.0
2023-05-02T12:38:37.448Z,102100.0
2023-05-02T12:40:38.962Z,102090.0
2023-05-02T12:42:36.623Z,102090.0
2023-05-02T12:44:37.781Z,102100.0
2023-05-02T12:46:36.606Z,102090.0
2023-05-02T12:48:36.464Z,102110.0
2023-05-02T12:50:36.881Z,102100.0
2023-05-02T12:52:46.248Z,102110.0
2023-05-02T12:54:35.749Z,102110.0
2023-05-02T12:56:38.737Z,102100.0
2023-05-02T12:58:41.996Z,102090.0
2023-05-02T13:00:37.970Z,102100.0
2023-05-02T13:04:36.177Z,102110.0
2023-05-02T13:06:36.845Z,102110.0
2023-05-02T13:10:34.348Z,102120.0
2023-05-02T13:12:36.706Z,102120.0
2023-05-02T13:16:35.517Z,102110.0
2023-05-02T13:18:33.790Z,102110.0
2023-05-02T13:20:33.408Z,102130.0
2023-05-02T13:22:33.599Z,102120.0
2023-05-02T13:24:33.118Z,102120.0
2023-05-02T13:26:32.976Z,102120.0
2023-05-02T13:30:32.804Z,102120.0
2023-05-02T13:32:32.530Z,102110.0
2023-05-02T13:34:32.231Z,102120.0
2023-05-02T13:36:32.220Z,102120.0
2023-05-02T13:42:31.803Z,102110.0
2023-05-02T13:44:31.761Z,102120.0
2023-05-02T13:46:35.385Z,102110.0
2023-05-02T13:48:31.011Z,102100.0
2023-05-02T13:50:30.958Z,102100.0
2023-05-02T13:52:30.641Z,102110.0
2023-05-02T13:54:30.696Z,102110.0
2023-05-02T13:56:30.635Z,102110.0
2023-05-02T13:58:30.383Z,102110.0
2023-05-02T14:00:30.298Z,102100.0
2023-05-02T14:02:30.083Z,102110.0
2023-05-02T14:06:31.033Z,102090.0
2023-05-02T14:08:29.452Z,102100.0
2023-05-02T14:12:29.590Z,102080.0
2023-05-02T14:14:29.226Z,102090.0
2023-05-02T14:16:29.501Z,102080.0
2023-05-02T14:18:28.778Z,102080.0
2023-05-02T14:20:28.494Z,102090.0
2023-05-02T14:22:28.351Z,102080.0
2023-05-02T14:24:28.168Z,102070.0
2023-05-02T14:26:28.152Z,102070.0
2023-05-02T14:28:28.041Z,102080.0
2023-05-02T14:30:28.040Z,102080.0
2023-05-02T14:32:27.607Z,102080.0
2023-05-02T14:34:27.642Z,102080.0
2023-05-02T14:36:27.373Z,102080.0
2023-05-02T14:38:27.141Z,102080.0
2023-05-02T14:40:27.134Z,102080.0
2023-05-02T14:44:26.782Z,102090.0
2023-05-02T14:46:26.604Z,102090.0
2023-05-02T14:48:26.755Z,102090.0
2023-05-02T14:50:26.302Z,102090.0
2023-05-02T14:54:27.301Z,102080.0
2023-05-02T14:56:26.474Z,102080.0
2023-05-02T14:58:25.724Z,102090.0
2023-05-02T15:00:25.436Z,102070.0
2023-05-02T15:02:25.803Z,102090.0
2023-05-02T15:04:25.849Z,102080.0
2023-05-02T15:06:29.165Z,102080.0
2023-05-02T15:08:25.181Z,102080.0
2023-05-02T15:10:24.968Z,102080.0
2023-05-02T15:12:25.284Z,102070.0
2023-05-02T15:14:24.488Z,102080.0
2023-05-02T15:16:25.622Z,102070.0
2023-05-02T15:18:24.091Z,102070.0
2023-05-02T15:20:23.877Z,102070.0
2023-05-02T15:22:25.018Z,102080.0
2023-05-02T15:24:23.877Z,102070.0
2023-05-02T15:26:25.032Z,102070.0
2023-05-02T15:28:23.397Z,102070.0
2023-05-02T15:30:23.610Z,102070.0
2023-05-02T15:32:23.282Z,102080.0
2023-05-02T15:34:22.929Z,102080.0
2023-05-02T15:36:25.952Z,102070.0
2023-05-02T15:38:23.820Z,102050.0
2023-05-02T15:40:24.897Z,102070.0
2023-05-02T15:42:22.476Z,102080.0
2023-05-02T15:44:22.208Z,102070.0
2023-05-02T15:46:22.372Z,102070.0
2023-05-02T15:50:22.157Z,102070.0
2023-05-02T15:52:21.692Z,102070.0
2023-05-02T15:58:22.353Z,102080.0
2023-05-02T16:02:20.962Z,102080.0
2023-05-02T16:04:20.959Z,102090.0
2023-05-02T16:06:20.947Z,102090.0
2023-05-02T16:08:20.596Z,102090.0
2023-05-02T16:10:20.596Z,102080.0
2023-05-02T16:12:20.318Z,102080.0
2023-05-02T16:14:22.837Z,102090.0
2023-05-02T16:16:20.150Z,102090.0
2023-05-02T16:18:22.112Z,102080.0
2023-05-02T16:20:20.028Z,102080.0
2023-05-02T16:22:19.577Z,102090.0
2023-05-02T16:24:19.561Z,102080.0
2023-05-02T16:26:19.752Z,102090.0
2023-05-02T16:28:19.309Z,102090.0
2023-05-02T16:30:18.988Z,102080.0
2023-05-02T16:32:19.491Z,102090.0
2023-05-02T16:34:18.654Z,102090.0
2023-05-02T16:36:18.529Z,102090.0
2023-05-02T16:38:18.582Z,102090.0
2023-05-02T16:40:18.477Z,102080.0
2023-05-02T16:42:18.149Z,102090.0
2023-05-02T16:44:17.935Z,102100.0
2023-05-02T16:46:17.922Z,102090.0
2023-05-02T16:48:18.378Z,102090.0
2023-05-02T16:50:17.693Z,102090.0
2023-05-02T16:54:17.275Z,102080.0
2023-05-02T16:58:17.053Z,102080.0
2023-05-02T17:00:17.381Z,102080.0
2023-05-02T17:02:18.228Z,102080.0
2023-05-02T17:04:16.615Z,102080.0
2023-05-02T17:06:16.263Z,102080.0
2023-05-02T17:08:16.134Z,102080.0
2023-05-02T17:10:16.137Z,102080.0
2023-05-02T17:12:21.383Z,102080.0
2023-05-02T17:14:15.751Z,102080.0
2023-05-02T17:18:15.728Z,102080.0
2023-05-02T17:20:16.328Z,102080.0
2023-05-02T17:22:14.934Z,102090.0
2023-05-02T17:24:15.281Z,102090.0
2023-05-02T17:26:14.775Z,102100.0
2023-05-02T17:28:14.939Z,102100.0
2023-05-02T17:30:14.354Z,102090.0
2023-05-02T17:32:14.851Z,102100.0
2023-05-02T17:34:13.976Z,102100.0
2023-05-02T17:36:13.799Z,102100.0
2023-05-02T17:38:15.275Z,102100.0
2023-05-02T17:40:13.471Z,102100.0
2023-05-02T17:42:13.733Z,102110.0
2023-05-02T17:44:13.188Z,102110.0
2023-05-02T17:46:13.436Z,102110.0
2023-05-02T17:48:13.661Z,102110.0
2023-05-02T17:50:13.233Z,102110.0
2023-05-02T17:52:12.523Z,102100.0
2023-05-02T17:54:12.398Z,102100.0
2023-05-02T17:56:14.894Z,102110.0
2023-05-02T17:58:12.252Z,102110.0
2023-05-02T18:00:13.414Z,102110.0
2023-05-02T18:02:11.763Z,102110.0
2023-05-02T18:04:13.367Z,102100.0
2023-05-02T18:06:14.959Z,102110.0
2023-05-02T18:08:11.066Z,102110.0
2023-05-02T18:10:11.377Z,102120.0
2023-05-02T18:12:10.817Z,102110.0
2023-05-02T18:14:10.647Z,102120.0
2023-05-02T18:16:11.020Z,102130.0
2023-05-02T18:18:10.260Z,102130.0
2023-05-02T18:20:10.297Z,102130.0
2023-05-02T18:22:10.297Z,102130.0
2023-05-02T18:24:09.822Z,102130.0
2023-05-02T18:26:11.807Z,102130.0
2023-05-02T18:30:10.365Z,102140.0
2023-05-02T18:32:09.187Z,102140.0
2023-05-02T18:34:08.641Z,102140.0
2023-05-02T18:36:08.760Z,102140.0
2023-05-02T18:38:08.295Z,102150.0
2023-05-02T18:42:09.488Z,102150.0
2023-05-02T18:46:08.022Z,102150.0
2023-05-02T18:48:07.526Z,102150.0
2023-05-02T18:50:08.117Z,102150.0
2023-05-02T18:52:07.285Z,102150.0
2023-05-02T18:54:06.873Z,102150.0
2023-05-02T18:56:11.457Z,102150.0
2023-05-02T18:58:06.432Z,102150.0
2023-05-02T19:00:08.233Z,102160.0
2023-05-02T19:02:06.183Z,102160.0
2023-05-02T19:04:05.767Z,102160.0
2023-05-02T19:06:06.327Z,102170.0
2023-05-02T19:08:06.190Z,102170.0
2023-05-02T19:12:05.287Z,102180.0
2023-05-02T19:14:05.590Z,102180.0
2023-05-02T19:16:05.028Z,102180.0
2023-05-02T19:18:04.684Z,102190.0
2023-05-02T19:20:05.511Z,102190.0
2023-05-02T19:22:03.791Z,102190.0
2023-05-02T19:24:04.236Z,102190.0
2023-05-02T19:26:03.548Z,102200.0
2023-05-02T19:28:03.519Z,102200.0
2023-05-02T19:30:03.802Z,102200.0
2023-05-02T19:32:03.433Z,102200.0
2023-05-02T19:34:03.041Z,102210.0
2023-05-02T19:36:03.896Z,102210.0
2023-05-02T19:38:02.285Z,102210.0
2023-05-02T19:40:02.018Z,102210.0
2023-05-02T19:42:02.326Z,102210.0
2023-05-02T19:44:01.562Z,102210.0
2023-05-02T19:46:02.049Z,102210.0
2023-05-02T19:48:00.935Z,102210.0
2023-05-02T19:50:00.806Z,102220.0
2023-05-02T19:54:00.293Z,102230.0
2023-05-02T19:56:01.784Z,102230.0
2023-05-02T20:00:00.000Z,102230.0
2023-05-02T20:01:59.833Z,102230.0
2023-05-02T20:03:59.465Z,102240.0
2023-05-02T20:07:58.657Z,102240.0
2023-05-02T20:09:58.381Z,102240.0
2023-05-02T20:11:58.131Z,102250.0
2023-05-02T20:13:58.246Z,102250.0
2023-05-02T20:15:57.823Z,102250.0
2023-05-02T20:17:57.478Z,102250.0
2023-05-02T20:19:57.333Z,102250.0
2023-05-02T20:23:56.742Z,102260.0
2023-05-02T20:25:56.702Z,102260.0
2023-05-02T20:27:56.202Z,102270.0
2023-05-02T20:29:56.654Z,102270.0
2023-05-02T20:31:56.710Z,102270.0
2023-05-02T20:33:55.457Z,102280.0
2023-05-02T20:35:55.351Z,102280.0
2023-05-02T20:37:55.001Z,102280.0
2023-05-02T20:39:55.310Z,102280.0
2023-05-02T20:41:57.359Z,102280.0
2023-05-02T20:43:54.416Z,102280.0
2023-05-02T20:45:54.186Z,102280.0
2023-05-02T20:47:53.785Z,102280.0
2023-05-02T20:49:53.742Z,102290.0
2023-05-02T20:51:53.525Z,102290.0
2023-05-02T20:53:53.652Z,102290.0
2023-05-02T20:55:52.804Z,102300.0
2023-05-02T20:57:53.358Z,102300.0
2023-05-02T21:01:52.139Z,102300.0
2023-05-02T21:03:51.811Z,102290.0
2023-05-02T21:05:52.108Z,102290.0
2023-05-02T21:07:51.338Z,102300.0
2023-05-02T21:09:50.923Z,102300.0
2023-05-02T21:13:50.565Z,102310.0
2023-05-02T21:15:50.157Z,102310.0
2023-05-02T21:17:58.950Z,102310.0
2023-05-02T21:19:52.764Z,102310.0
2023-05-02T21:21:49.606Z,102320.0
2023-05-02T21:23:49.039Z,102310.0
2023-05-02T21:25:48.851Z,102320.0
2023-05-02T21:27:49.474Z,102320.0
2023-05-02T21:29:48.395Z,102320.0
2023-05-02T21:31:48.153Z,102320.0
2023-05-02T21:33:47.799Z,102320.0
2023-05-02T21:35:53.580Z,102320.0
2023-05-02T21:37:47.258Z,102320.0
2023-05-02T21:39:46.912Z,102320.0
2023-05-02T21:43:46.451Z,102310.0
2023-05-02T21:45:46.970Z,102320.0
2023-05-02T21:47:45.840Z,102310.0
2023-05-02T21:51:45.239Z,102300.0
2023-05-02T21:53:44.940Z,102300.0
2023-05-02T21:55:44.820Z,102300.0
2023-05-02T21:57:44.541Z,102310.0
2023-05-02T21:59:44.753Z,102310.0
2023-05-02T22:01:43.886Z,102310.0
2023-05-02T22:03:43.513Z,102310.0
2023-05-02T22:05:47.299Z,102310.0
2023-05-02T22:07:43.001Z,102310.0
2023-05-02T22:09:42.695Z,102310.0
2023-05-02T22:11:42.567Z,102310.0
2023-05-02T22:13:42.145Z,102300.0
2023-05-02T22:15:44.315Z,102300.0
2023-05-02T22:21:41.417Z,102310.0
2023-05-02T22:23:40.989Z,102310.0
2023-05-02T22:25:42.071Z,102310.0
2023-05-02T22:29:39.796Z,102300.0
2023-05-02T22:31:39.801Z,102310.0
2023-05-02T22:33:39.270Z,102310.0
2023-05-02T22:35:38.924Z,102310.0
2023-05-02T22:37:38.550Z,102310.0
2023-05-02T22:39:38.403Z,102310.0
2023-05-02T22:41:38.229Z,102320.0
2023-05-02T22:43:37.982Z,102320.0
2023-05-02T22:45:37.722Z,102320.0
2023-05-02T22:47:37.131Z,102320.0
2023-05-02T22:49:39.549Z,102320.0
2023-05-02T22:51:38.930Z,102320.0
2023-05-02T22:53:36.235Z,102330.0
2023-05-02T22:55:37.770Z,102340.0
2023-05-02T22:57:36.224Z,102330.0
2023-05-02T22:59:35.573Z,102330.0
2023-05-02T23:01:35.397Z,102340.0
2023-05-02T23:03:35.083Z,102330.0
2023-05-02T23:11:33.589Z,102330.0
2023-05-02T23:13:33.266Z,102330.0
2023-05-02T23:15:33.055Z,102320.0
2023-05-02T23:17:36.272Z,102330.0
2023-05-02T23:19:32.626Z,102320.0
2023-05-02T23:23:31.878Z,102320.0
2023-05-02T23:25:34.351Z,102320.0
2023-05-02T23:27:31.315Z,102320.0
2023-05-02T23:29:30.953Z,102320.0
2023-05-02T23:31:31.056Z,102320.0
2023-05-02T23:33:31.112Z,102320.0
2023-05-02T23:35:30.242Z,102320.0
2023-05-02T23:37:29.827Z,102320.0
2023-05-02T23:39:29.746Z,102320.0
2023-05-02T23:41:29.734Z,102320.0
2023-05-02T23:45:28.747Z,102320.0
2023-05-02T23:47:28.406Z,102320.0
2023-05-02T23:49:28.044Z,102320.0
2023-05-02T23:51:27.644Z,102320.0
2023-05-02T23:53:27.456Z,102320.0
2023-05-02T23:55:27.187Z,102320.0
2023-05-02T23:57:28.469Z,102320.0
2023-05-02T23:59:26.374Z,102320.0
